createdAt,value
2022-12-25T00:00:20.232Z,97476.00
2022-12-25T00:02:51.304Z,97480.47
2022-12-25T00:05:19.936Z,97478.66
2022-12-25T00:07:48.702Z,97481.31
2022-12-25T00:10:18.032Z,97476.00
2022-12-25T00:12:50.261Z,97477.69
2022-12-25T00:15:19.248Z,97472.41
2022-12-25T00:17:47.710Z,97480.34
2022-12-25T00:20:17.617Z,97485.75
2022-12-25T00:22:46.071Z,97482.13
2022-12-25T00:25:14.637Z,97487.56
2022-12-25T00:27:43.140Z,97486.72
2022-12-25T00:30:12.325Z,97484.06
2022-12-25T00:32:42.224Z,97476.28
2022-12-25T00:35:11.090Z,97474.34
2022-12-25T00:37:41.386Z,97462.94
2022-12-25T00:40:11.415Z,97466.69
2022-12-25T00:42:40.415Z,97470.16
2022-12-25T00:45:09.560Z,97470.03
2022-12-25T00:47:38.045Z,97472.81
2022-12-25T00:50:07.967Z,97472.81
2022-12-25T00:52:36.544Z,97466.56
2022-12-25T00:55:07.268Z,97471.84
2022-12-25T00:57:35.756Z,97482.53
2022-12-25T01:00:04.791Z,97474.75
2022-12-25T01:02:33.390Z,97483.25
2022-12-25T01:05:01.906Z,97478.22
2022-12-25T01:07:30.357Z,97480.72
2022-12-25T01:10:16.372Z,97473.91
2022-12-25T01:12:46.087Z,97490.47
2022-12-25T01:15:14.940Z,97490.47
2022-12-25T01:17:43.789Z,97499.34
2022-12-25T01:20:13.612Z,97502.00
2022-12-25T01:22:42.080Z,97508.25
2022-12-25T01:25:10.929Z,97500.34
2022-12-25T01:27:39.558Z,97502.28
2022-12-25T01:30:10.845Z,97507.41
2022-12-25T01:32:39.372Z,97513.53
2022-12-25T01:35:08.335Z,97523.28
2022-12-25T01:37:36.920Z,97511.88
2022-12-25T01:40:06.357Z,97507.56
2022-12-25T01:42:34.848Z,97505.88
2022-12-25T01:45:33.595Z,97495.31
2022-12-25T01:48:04.813Z,97491.84
2022-12-25T01:50:34.196Z,97497.13
2022-12-25T01:53:03.404Z,97491.00
2022-12-25T01:55:31.947Z,97491.00
2022-12-25T01:58:00.589Z,97483.06
2022-12-25T02:00:29.243Z,97488.34
2022-12-25T02:02:59.504Z,97490.16
2022-12-25T02:05:30.506Z,97494.59
2022-12-25T02:08:02.202Z,97489.47
2022-12-25T02:10:30.807Z,97492.94
2022-12-25T02:12:59.847Z,97484.16
2022-12-25T02:15:32.991Z,97489.47
2022-12-25T02:18:07.478Z,97494.59
2022-12-25T02:20:52.191Z,97491.25
2022-12-25T02:23:43.198Z,97496.53
2022-12-25T02:26:18.166Z,97500.16
2022-12-25T02:28:52.384Z,97502.78
2022-12-25T02:31:25.621Z,97507.38
2022-12-25T02:34:06.796Z,97506.41
2022-12-25T02:36:40.137Z,97505.72
2022-12-25T02:39:30.341Z,97497.06
2022-12-25T02:42:02.754Z,97505.72
2022-12-25T02:44:52.165Z,97503.91
2022-12-25T02:47:40.704Z,97500.44
2022-12-25T02:50:27.594Z,97503.19
2022-12-25T02:53:26.716Z,97504.03
2022-12-25T02:56:13.889Z,97505.13
2022-12-25T02:59:12.835Z,97512.94
2022-12-25T03:02:01.707Z,97511.25
2022-12-25T03:04:49.666Z,97498.03
2022-12-25T03:07:20.104Z,97497.34
2022-12-25T03:10:08.975Z,97483.16
2022-12-25T03:12:41.948Z,97481.50
2022-12-25T03:15:29.779Z,97472.88
2022-12-25T03:18:01.807Z,97474.53
2022-12-25T03:20:48.618Z,97474.53
2022-12-25T03:23:39.018Z,97475.38
2022-12-25T03:26:25.357Z,97478.84
2022-12-25T03:28:53.903Z,97473.69
2022-12-25T03:31:27.944Z,97472.88
2022-12-25T03:34:40.556Z,97464.94
2022-12-25T03:37:35.683Z,97457.00
2022-12-25T03:40:28.697Z,97457.19
2022-12-25T03:43:20.213Z,97458.03
2022-12-25T03:46:10.043Z,97455.50
2022-12-25T03:48:58.062Z,97455.59
2022-12-25T03:51:49.305Z,97452.03
2022-12-25T03:54:37.598Z,97451.19
2022-12-25T03:57:23.501Z,97452.03
2022-12-25T04:00:09.375Z,97438.94
2022-12-25T04:02:55.711Z,97435.34
2022-12-25T04:05:41.755Z,97445.91
2022-12-25T04:08:28.864Z,97456.56
2022-12-25T04:11:14.663Z,97440.88
2022-12-25T04:14:00.537Z,97443.63
2022-12-25T04:16:46.645Z,97433.06
2022-12-25T04:19:32.526Z,97436.56
2022-12-25T04:22:18.539Z,97438.34
2022-12-25T04:25:05.785Z,97441.97
2022-12-25T04:27:51.761Z,97444.75
2022-12-25T04:30:37.596Z,97441.13
2022-12-25T04:33:23.551Z,97443.91
2022-12-25T04:36:11.213Z,97439.47
2022-12-25T04:38:40.992Z,97452.66
2022-12-25T04:41:11.918Z,97448.34
2022-12-25T04:43:40.579Z,97446.53
2022-12-25T04:46:12.003Z,97444.03
2022-12-25T04:48:40.455Z,97444.03
2022-12-25T04:51:16.458Z,97445.97
2022-12-25T04:53:45.515Z,97442.50
2022-12-25T04:56:16.032Z,97444.16
2022-12-25T04:58:45.075Z,97447.78
2022-12-25T05:01:14.267Z,97442.50
2022-12-25T05:03:42.946Z,97439.84
2022-12-25T05:06:11.701Z,97439.16
2022-12-25T05:08:40.165Z,97432.91
2022-12-25T05:11:09.891Z,97425.94
2022-12-25T05:13:40.451Z,97434.72
2022-12-25T05:16:10.513Z,97426.91
2022-12-25T05:18:39.128Z,97434.84
2022-12-25T05:21:08.391Z,97425.13
2022-12-25T05:23:37.265Z,97417.31
2022-12-25T05:26:06.744Z,97417.47
2022-12-25T05:28:35.766Z,97422.59
2022-12-25T05:31:05.624Z,97418.28
2022-12-25T05:33:34.476Z,97411.47
2022-12-25T05:36:04.425Z,97411.34
2022-12-25T05:38:33.772Z,97419.25
2022-12-25T05:41:02.336Z,97421.91
2022-12-25T05:43:30.876Z,97427.19
2022-12-25T05:45:59.523Z,97425.78
2022-12-25T05:48:29.399Z,97423.84
2022-12-25T05:50:57.900Z,97429.25
2022-12-25T05:53:26.769Z,97429.25
2022-12-25T05:55:55.164Z,97429.25
2022-12-25T05:58:23.574Z,97426.75
2022-12-25T06:00:52.249Z,97425.91
2022-12-25T06:03:21.074Z,97422.44
2022-12-25T06:05:51.125Z,97419.78
2022-12-25T06:08:19.687Z,97418.97
2022-12-25T06:10:48.489Z,97418.97
2022-12-25T06:13:16.995Z,97417.41
2022-12-25T06:15:45.523Z,97413.81
2022-12-25T06:18:14.417Z,97404.91
2022-12-25T06:20:42.929Z,97412.97
2022-12-25T06:23:12.918Z,97406.03
2022-12-25T06:25:41.855Z,97409.63
2022-12-25T06:28:10.326Z,97404.34
2022-12-25T06:30:39.269Z,97404.34
2022-12-25T06:33:08.432Z,97409.63
2022-12-25T06:35:39.897Z,97408.78
2022-12-25T06:38:08.325Z,97410.47
2022-12-25T06:40:38.329Z,97404.34
2022-12-25T06:43:06.732Z,97404.47
2022-12-25T06:45:36.406Z,97404.47
2022-12-25T06:48:05.105Z,97400.16
2022-12-25T06:50:33.833Z,97406.16
2022-12-25T06:53:02.969Z,97406.41
2022-12-25T06:55:31.655Z,97406.28
2022-12-25T06:58:01.468Z,97403.50
2022-12-25T07:00:30.170Z,97407.25
2022-12-25T07:02:58.924Z,97411.69
2022-12-25T07:05:27.437Z,97416.13
2022-12-25T07:07:55.865Z,97417.09
2022-12-25T07:10:24.396Z,97411.00
2022-12-25T07:12:52.785Z,97418.91
2022-12-25T07:15:22.674Z,97412.66
2022-12-25T07:17:51.121Z,97407.38
2022-12-25T07:20:19.698Z,97409.06
2022-12-25T07:22:48.149Z,97414.47
2022-12-25T07:25:16.713Z,97410.16
2022-12-25T07:27:45.261Z,97409.31
2022-12-25T07:30:14.672Z,97410.84
2022-12-25T07:32:50.008Z,97413.75
2022-12-25T07:35:18.803Z,97419.88
2022-12-25T07:37:47.227Z,97423.34
2022-12-25T07:40:16.063Z,97421.56
2022-12-25T07:42:44.621Z,97415.44
2022-12-25T07:45:13.149Z,97424.19
2022-12-25T07:47:41.601Z,97417.09
2022-12-25T07:50:12.048Z,97418.78
2022-12-25T07:52:43.649Z,97420.59
2022-12-25T07:55:12.412Z,97418.78
2022-12-25T07:57:40.836Z,97419.75
2022-12-25T08:00:10.521Z,97422.38
2022-12-25T08:02:43.025Z,97419.75
2022-12-25T08:05:12.900Z,97415.44
2022-12-25T08:07:41.395Z,97417.09
2022-12-25T08:10:10.305Z,97418.78
2022-12-25T08:12:38.727Z,97428.50
2022-12-25T08:15:08.210Z,97429.34
2022-12-25T08:17:36.686Z,97423.22
2022-12-25T08:20:05.992Z,97424.91
2022-12-25T08:22:35.892Z,97427.53
2022-12-25T08:25:04.831Z,97427.53
2022-12-25T08:27:33.331Z,97429.34
2022-12-25T08:30:01.814Z,97429.22
2022-12-25T08:32:30.351Z,97431.84
2022-12-25T08:34:58.809Z,97435.31
2022-12-25T08:37:27.511Z,97422.38
2022-12-25T08:39:57.290Z,97427.53
2022-12-25T08:42:25.811Z,97431.00
2022-12-25T08:44:54.888Z,97431.97
2022-12-25T08:47:23.283Z,97422.25
2022-12-25T08:49:51.711Z,97413.50
2022-12-25T08:52:20.293Z,97433.78
2022-12-25T08:54:48.672Z,97414.47
2022-12-25T08:57:18.416Z,97413.50
2022-12-25T08:59:47.132Z,97416.28
2022-12-25T09:02:15.941Z,97430.19
2022-12-25T09:04:46.451Z,97424.75
2022-12-25T09:07:15.028Z,97425.59
2022-12-25T09:09:43.603Z,97425.59
2022-12-25T09:12:12.001Z,97433.53
2022-12-25T09:14:41.740Z,97434.34
2022-12-25T09:17:10.476Z,97445.88
2022-12-25T09:19:38.906Z,97446.72
2022-12-25T09:22:07.345Z,97428.25
2022-12-25T09:24:35.784Z,97435.19
2022-12-25T09:27:04.179Z,97428.09
2022-12-25T09:29:32.575Z,97418.50
2022-12-25T09:32:02.292Z,97413.81
2022-12-25T09:34:30.771Z,97419.94
2022-12-25T09:36:59.197Z,97420.75
2022-12-25T09:39:28.772Z,97432.16
2022-12-25T09:41:59.996Z,97427.72
2022-12-25T09:44:31.699Z,97424.09
2022-12-25T09:47:05.247Z,97425.78
2022-12-25T09:49:38.157Z,97420.38
2022-12-25T09:52:10.859Z,97415.91
2022-12-25T09:54:43.322Z,97423.84
2022-12-25T09:57:13.369Z,97427.31
2022-12-25T09:59:43.722Z,97418.56
2022-12-25T10:02:37.777Z,97418.56
2022-12-25T10:05:21.321Z,97422.75
2022-12-25T10:07:55.553Z,97413.97
2022-12-25T10:10:35.086Z,97419.13
2022-12-25T10:13:08.949Z,97407.19
2022-12-25T10:15:45.721Z,97393.72
2022-12-25T10:18:33.309Z,97391.91
2022-12-25T10:21:05.682Z,97390.81
2022-12-25T10:23:40.802Z,97385.16
2022-12-25T10:26:15.253Z,97369.06
2022-12-25T10:28:46.343Z,97357.06
2022-12-25T10:31:21.469Z,97352.22
2022-12-25T10:33:52.752Z,97354.31
2022-12-25T10:36:23.638Z,97349.47
2022-12-25T10:38:52.220Z,97342.78
2022-12-25T10:41:30.279Z,97341.69
2022-12-25T10:43:58.952Z,97337.78
2022-12-25T10:46:29.986Z,97331.38
2022-12-25T10:49:01.624Z,97325.81
2022-12-25T10:51:31.741Z,97324.56
2022-12-25T10:54:00.626Z,97320.81
2022-12-25T10:56:29.145Z,97322.22
2022-12-25T10:59:07.109Z,97323.59
2022-12-25T11:01:35.718Z,97314.69
2022-12-25T11:04:05.604Z,97313.56
2022-12-25T11:06:34.588Z,97312.47
2022-12-25T11:09:04.029Z,97297.44
2022-12-25T11:11:41.735Z,97291.03
2022-12-25T11:14:18.561Z,97294.50
2022-12-25T11:16:47.360Z,97302.16
2022-12-25T11:19:35.332Z,97307.72
2022-12-25T11:22:05.984Z,97301.28
2022-12-25T11:24:35.128Z,97301.00
2022-12-25T11:27:07.083Z,97300.56
2022-12-25T11:29:38.544Z,97296.81
2022-12-25T11:32:14.142Z,97289.56
2022-12-25T11:34:45.602Z,97277.31
2022-12-25T11:37:17.696Z,97276.78
2022-12-25T11:39:46.205Z,97273.97
2022-12-25T11:42:19.643Z,97273.69
2022-12-25T11:44:52.815Z,97262.00
2022-12-25T11:47:24.945Z,97266.03
2022-12-25T11:50:00.930Z,97267.41
2022-12-25T11:52:33.494Z,97261.00
2022-12-25T11:55:10.120Z,97264.47
2022-12-25T11:57:40.377Z,97268.78
2022-12-25T12:00:12.545Z,97257.38
2022-12-25T12:02:45.325Z,97254.84
2022-12-25T12:05:21.148Z,97252.50
2022-12-25T12:07:55.109Z,97263.09
2022-12-25T12:10:29.734Z,97251.66
2022-12-25T12:13:07.356Z,97253.34
2022-12-25T12:15:40.845Z,97249.84
2022-12-25T12:18:09.985Z,97236.63
2022-12-25T12:20:39.836Z,97241.09
2022-12-25T12:23:15.117Z,97244.56
2022-12-25T12:25:44.405Z,97243.88
2022-12-25T12:28:20.582Z,97233.44
2022-12-25T12:30:58.285Z,97236.91
2022-12-25T12:33:30.848Z,97217.56
2022-12-25T12:36:01.731Z,97230.78
2022-12-25T12:38:30.414Z,97208.66
2022-12-25T12:40:59.970Z,97200.72
2022-12-25T12:43:32.755Z,97193.63
2022-12-25T12:46:05.775Z,97195.13
2022-12-25T12:48:42.887Z,97193.19
2022-12-25T12:51:14.403Z,97199.31
2022-12-25T12:53:43.888Z,97201.13
2022-12-25T12:56:17.650Z,97204.59
2022-12-25T12:58:51.080Z,97199.16
2022-12-25T13:01:33.344Z,97202.53
2022-12-25T13:04:17.942Z,97196.25
2022-12-25T13:06:52.685Z,97187.34
2022-12-25T13:09:28.783Z,97189.84
2022-12-25T13:11:57.652Z,97194.97
2022-12-25T13:14:26.324Z,97183.56
2022-12-25T13:16:55.419Z,97186.22
2022-12-25T13:19:25.908Z,97195.13
2022-12-25T13:21:57.996Z,97191.50
2022-12-25T13:24:27.887Z,97179.25
2022-12-25T13:26:56.484Z,97171.03
2022-12-25T13:29:31.083Z,97171.03
2022-12-25T13:32:01.004Z,97162.09
2022-12-25T13:34:31.732Z,97173.38
2022-12-25T13:37:08.563Z,97158.47
2022-12-25T13:39:38.008Z,97154.72
2022-12-25T13:42:06.120Z,97151.91
2022-12-25T13:44:42.679Z,97159.84
2022-12-25T13:47:22.123Z,97160.16
2022-12-25T13:49:51.998Z,97175.19
2022-12-25T13:52:23.826Z,97172.53
2022-12-25T13:54:57.981Z,97182.16
2022-12-25T13:57:31.131Z,97177.53
2022-12-25T14:00:00.163Z,97181.72
2022-12-25T14:02:32.364Z,97179.91
2022-12-25T14:05:00.953Z,97171.94
2022-12-25T14:07:30.871Z,97165.84
2022-12-25T14:10:01.455Z,97173.78
2022-12-25T14:12:31.915Z,97159.69
2022-12-25T14:15:00.559Z,97158.88
2022-12-25T14:17:29.155Z,97164.16
2022-12-25T14:20:06.015Z,97161.50
2022-12-25T14:22:38.659Z,97167.94
2022-12-25T14:25:15.740Z,97172.41
2022-12-25T14:27:49.298Z,97180.34
2022-12-25T14:30:18.300Z,97173.91
2022-12-25T14:32:50.764Z,97155.38
2022-12-25T14:35:23.633Z,97142.84
2022-12-25T14:37:57.459Z,97153.28
2022-12-25T14:40:28.116Z,97161.22
2022-12-25T14:42:57.539Z,97165.38
2022-12-25T14:45:28.968Z,97167.19
2022-12-25T14:47:59.917Z,97173.31
2022-12-25T14:50:30.828Z,97168.31
2022-12-25T14:53:01.349Z,97163.19
2022-12-25T14:55:30.919Z,97172.09
2022-12-25T14:58:04.481Z,97170.44
2022-12-25T15:00:35.472Z,97174.75
2022-12-25T15:03:06.087Z,97176.72
2022-12-25T15:05:36.980Z,97171.41
2022-12-25T15:08:21.428Z,97181.16
2022-12-25T15:11:00.623Z,97177.84
2022-12-25T15:13:30.772Z,97175.19
2022-12-25T15:16:02.494Z,97167.25
2022-12-25T15:18:33.980Z,97161.13
2022-12-25T15:21:02.442Z,97150.69
2022-12-25T15:23:32.354Z,97159.47
2022-12-25T15:26:00.795Z,97149.84
2022-12-25T15:28:29.310Z,97154.31
2022-12-25T15:30:57.789Z,97144.72
2022-12-25T15:33:27.576Z,97138.59
2022-12-25T15:35:56.388Z,97132.31
2022-12-25T15:38:25.077Z,97148.34
2022-12-25T15:40:54.959Z,97143.88
2022-12-25T15:43:40.370Z,97155.44
2022-12-25T15:46:10.482Z,97158.09
2022-12-25T15:48:38.918Z,97158.91
2022-12-25T15:51:07.443Z,97157.09
2022-12-25T15:53:36.049Z,97147.50
2022-12-25T15:56:06.815Z,97160.72
2022-12-25T15:58:36.274Z,97162.53
2022-12-25T16:01:05.056Z,97175.78
2022-12-25T16:03:35.223Z,97166.03
2022-12-25T16:06:04.209Z,97161.72
2022-12-25T16:08:33.050Z,97163.53
2022-12-25T16:11:02.013Z,97172.28
2022-12-25T16:13:32.291Z,97174.09
2022-12-25T16:16:01.487Z,97169.66
2022-12-25T16:18:30.766Z,97170.63
2022-12-25T16:21:00.727Z,97165.34
2022-12-25T16:23:29.618Z,97156.56
2022-12-25T16:25:58.480Z,97147.81
2022-12-25T16:28:28.930Z,97161.97
2022-12-25T16:30:58.847Z,97161.03
2022-12-25T16:33:28.467Z,97159.34
2022-12-25T16:35:57.006Z,97165.50
2022-12-25T16:38:25.589Z,97175.19
2022-12-25T16:40:56.903Z,97182.19
2022-12-25T16:43:25.686Z,97179.56
2022-12-25T16:45:54.367Z,97173.53
2022-12-25T16:48:24.221Z,97169.91
2022-12-25T16:50:52.859Z,97163.94
2022-12-25T16:53:21.252Z,97155.84
2022-12-25T16:55:49.709Z,97154.19
2022-12-25T16:58:18.095Z,97151.69
2022-12-25T17:00:49.368Z,97150.72
2022-12-25T17:03:18.310Z,97155.03
2022-12-25T17:05:48.129Z,97151.53
2022-12-25T17:08:16.628Z,97150.72
2022-12-25T17:10:45.007Z,97161.28
2022-12-25T17:13:13.529Z,97153.34
2022-12-25T17:15:48.357Z,97156.97
2022-12-25T17:18:22.035Z,97156.97
2022-12-25T17:20:53.026Z,97150.84
2022-12-25T17:23:21.813Z,97150.16
2022-12-25T17:25:50.209Z,97148.34
2022-12-25T17:28:18.638Z,97140.28
2022-12-25T17:30:47.175Z,97142.22
2022-12-25T17:33:15.598Z,97136.09
2022-12-25T17:35:43.997Z,97125.53
2022-12-25T17:38:13.789Z,97136.09
2022-12-25T17:40:42.222Z,97142.22
2022-12-25T17:43:14.343Z,97134.44
2022-12-25T17:45:47.496Z,97148.66
2022-12-25T17:48:16.633Z,97142.38
2022-12-25T17:50:45.175Z,97151.28
2022-12-25T17:53:14.997Z,97139.72
2022-12-25T17:55:43.895Z,97142.38
2022-12-25T17:58:13.160Z,97139.88
2022-12-25T18:00:41.791Z,97153.94
2022-12-25T18:03:11.911Z,97146.00
2022-12-25T18:05:40.631Z,97157.56
2022-12-25T18:08:09.367Z,97148.66
2022-12-25T18:10:39.791Z,97146.16
2022-12-25T18:13:08.789Z,97166.47
2022-12-25T18:15:37.954Z,97162.03
2022-12-25T18:18:07.187Z,97162.16
2022-12-25T18:20:40.224Z,97176.22
2022-12-25T18:23:09.248Z,97164.81
2022-12-25T18:25:42.748Z,97178.19
2022-12-25T18:28:11.253Z,97177.34
2022-12-25T18:30:41.008Z,97172.06
2022-12-25T18:33:09.848Z,97180.81
2022-12-25T18:35:40.096Z,97171.38
2022-12-25T18:38:09.257Z,97167.75
2022-12-25T18:40:43.050Z,97153.69
2022-12-25T18:43:12.795Z,97149.22
2022-12-25T18:45:41.548Z,97144.94
2022-12-25T18:48:10.995Z,97155.50
2022-12-25T18:50:41.225Z,97159.13
2022-12-25T18:53:09.682Z,97157.31
2022-12-25T18:55:42.570Z,97166.22
2022-12-25T18:58:11.246Z,97169.84
2022-12-25T19:00:39.669Z,97161.91
2022-12-25T19:03:09.167Z,97155.78
2022-12-25T19:05:40.011Z,97148.84
2022-12-25T19:08:08.638Z,97140.91
2022-12-25T19:10:37.824Z,97150.78
2022-12-25T19:13:07.951Z,97150.78
2022-12-25T19:15:37.111Z,97139.25
2022-12-25T19:18:05.819Z,97149.81
2022-12-25T19:20:34.864Z,97142.88
2022-12-25T19:23:03.284Z,97150.78
2022-12-25T19:25:31.688Z,97148.97
2022-12-25T19:28:00.140Z,97150.78
2022-12-25T19:30:29.899Z,97155.41
2022-12-25T19:32:58.322Z,97152.59
2022-12-25T19:35:26.882Z,97140.38
2022-12-25T19:37:55.428Z,97140.50
2022-12-25T19:40:26.402Z,97142.31
2022-12-25T19:42:54.861Z,97150.25
2022-12-25T19:45:23.897Z,97152.06
2022-12-25T19:47:53.868Z,97157.34
2022-12-25T19:50:22.331Z,97154.84
2022-12-25T19:52:50.948Z,97149.41
2022-12-25T19:55:20.149Z,97154.72
2022-12-25T19:57:48.628Z,97152.91
2022-12-25T20:00:17.929Z,97159.31
2022-12-25T20:02:47.051Z,97152.34
2022-12-25T20:05:16.970Z,97149.72
2022-12-25T20:07:45.568Z,97152.53
2022-12-25T20:10:14.007Z,97164.59
2022-12-25T20:12:43.050Z,97163.78
2022-12-25T20:15:12.093Z,97172.69
2022-12-25T20:17:40.505Z,97161.28
2022-12-25T20:20:09.568Z,97158.81
2022-12-25T20:22:39.408Z,97168.53
2022-12-25T20:25:09.126Z,97161.59
2022-12-25T20:27:37.598Z,97150.19
2022-12-25T20:30:08.639Z,97166.88
2022-12-25T20:32:37.127Z,97163.25
2022-12-25T20:35:06.334Z,97162.28
2022-12-25T20:37:35.243Z,97162.56
2022-12-25T20:40:05.651Z,97166.88
2022-12-25T20:42:34.079Z,97164.38
2022-12-25T20:45:03.806Z,97159.22
2022-12-25T20:47:32.283Z,97168.84
2022-12-25T20:50:00.672Z,97167.47
2022-12-25T20:52:29.235Z,97182.34
2022-12-25T20:54:57.649Z,97172.75
2022-12-25T20:57:28.571Z,97173.56
2022-12-25T20:59:57.063Z,97173.56
2022-12-25T21:02:35.641Z,97180.69
2022-12-25T21:05:05.101Z,97189.44
2022-12-25T21:07:33.859Z,97201.00
2022-12-25T21:10:02.547Z,97200.84
2022-12-25T21:12:32.352Z,97194.03
2022-12-25T21:15:00.837Z,97189.88
2022-12-25T21:17:29.326Z,97187.50
2022-12-25T21:19:57.707Z,97204.06
2022-12-25T21:22:26.064Z,97204.06
2022-12-25T21:24:54.521Z,97205.03
2022-12-25T21:27:25.604Z,97213.13
2022-12-25T21:29:55.436Z,97212.28
2022-12-25T21:32:41.547Z,97218.25
2022-12-25T21:35:10.396Z,97227.16
2022-12-25T21:37:38.776Z,97227.16
2022-12-25T21:40:12.810Z,97239.41
2022-12-25T21:42:44.565Z,97240.53
2022-12-25T21:45:14.328Z,97240.66
2022-12-25T21:48:01.727Z,97242.63
2022-12-25T21:50:48.484Z,97241.09
2022-12-25T21:53:18.966Z,97240.97
2022-12-25T21:55:57.035Z,97246.25
2022-12-25T21:58:25.622Z,97236.66
2022-12-25T22:00:55.511Z,97240.41
2022-12-25T22:03:24.935Z,97236.94
2022-12-25T22:06:20.940Z,97226.34
2022-12-25T22:08:49.962Z,97239.03
2022-12-25T22:11:36.286Z,97257.53
2022-12-25T22:14:52.244Z,97251.25
2022-12-25T22:17:29.749Z,97261.00
2022-12-25T22:19:58.302Z,97271.84
2022-12-25T22:22:28.048Z,97270.03
2022-12-25T22:24:58.135Z,97263.94
2022-12-25T22:27:27.083Z,97263.94
2022-12-25T22:29:55.756Z,97269.22
2022-12-25T22:32:25.744Z,97267.53
2022-12-25T22:34:54.351Z,97259.06
2022-12-25T22:37:23.196Z,97260.88
2022-12-25T22:39:51.648Z,97274.63
2022-12-25T22:42:20.532Z,97270.31
2022-12-25T22:44:49.225Z,97267.69
2022-12-25T22:47:17.726Z,97265.19
2022-12-25T22:49:47.602Z,97264.34
2022-12-25T22:52:16.101Z,97259.75
2022-12-25T22:54:44.488Z,97254.59
2022-12-25T22:57:12.855Z,97260.59
2022-12-25T22:59:41.279Z,97266.00
2022-12-25T23:02:10.046Z,97269.50
2022-12-25T23:04:38.569Z,97267.69
2022-12-25T23:07:08.725Z,97277.41
2022-12-25T23:09:37.694Z,97280.91
2022-12-25T23:12:06.880Z,97287.16
2022-12-25T23:14:40.399Z,97282.97
2022-12-25T23:17:30.824Z,97259.88
2022-12-25T23:20:18.257Z,97266.16
2022-12-25T23:23:05.807Z,97271.44
2022-12-25T23:25:53.307Z,97259.88
2022-12-25T23:28:36.097Z,97268.50
2022-12-25T23:31:04.742Z,97271.28
2022-12-25T23:33:33.576Z,97276.59
2022-12-25T23:36:02.142Z,97286.31
2022-12-25T23:38:31.967Z,97283.81
2022-12-25T23:41:01.835Z,97280.19
2022-12-25T23:43:30.467Z,97287.28
2022-12-25T23:45:59.069Z,97272.28
2022-12-25T23:48:27.613Z,97288.97
2022-12-25T23:50:56.483Z,97286.59
2022-12-25T23:53:24.949Z,97293.56
2022-12-25T23:55:56.157Z,97295.38
2022-12-25T23:58:24.713Z,97291.06
